Dubuque (DBQ/KDBQ)

Map

Destinations

Information

Location
Dubuque, Iowa
Local Time
00:35 / 12:35 am
GMT Time
06:35 / 6:35 am
Gates
Unassigned
No FAA reported delays
METAR KDBQ 220553Z AUTO 20009KT 10SM CLR 06/03 A2980 RMK AO2 SLP096 T00560028 10111 20056 401610033 58013
TAF KDBQ 220525Z 2206/2306 20005KT P6SM SKC FM221500 21010G17KT P6SM SKC FM230000 20008KT P6SM SKC
  • No charts available